Time,TemperatureF,DewpointF,PressureIn,WindDirection,WindDirectionDegrees,WindSpeedMPH,WindSpeedGustMPH,Humidity,HourlyPrecipIn,Conditions,Clouds,dailyrainin,SolarRadiationWatts/m^2,SoftwareType,DateUTC
2013-07-18 00:01:00,61.0,57.0,30.35,East,84,27.0,30.0,85,-99.99,,,-99.99,0.000000,,2013-07-18 06:01:00,
2013-07-18 00:11:00,61.0,57.0,30.34,East,83,29.0,33.0,86,-99.99,,,-99.99,0.000000,,2013-07-18 06:11:00,
2013-07-18 00:22:00,61.0,57.0,30.34,East,89,28.0,32.0,86,-99.99,,,-99.99,0.000000,,2013-07-18 06:22:00,
2013-07-18 00:32:00,61.0,57.0,30.34,East,89,28.0,32.0,86,-99.99,,,-99.99,0.000000,,2013-07-18 06:32:00,
2013-07-18 00:43:00,61.0,57.0,30.34,East,87,28.0,32.0,87,-99.99,,,-99.99,0.000000,,2013-07-18 06:43:00,
2013-07-18 00:52:00,61.0,57.0,30.33,East,85,29.0,33.0,88,-99.99,,,-99.99,0.000000,,2013-07-18 06:52:00,
2013-07-18 01:00:00,59.0,58.0,30.32,East,82,31.0,35.0,94,-99.99,,,-99.99,0.000000,,2013-07-18 07:00:00,
2013-07-18 01:01:00,61.0,57.0,30.33,East,85,29.0,33.0,88,-99.99,,,-99.99,0.000000,,2013-07-18 07:01:00,
2013-07-18 01:11:00,60.0,58.0,30.32,East,87,31.0,35.0,92,-99.99,,,-99.99,0.000000,,2013-07-18 07:11:00,
2013-07-18 01:22:00,59.0,58.0,30.32,East,82,31.0,35.0,94,-99.99,,,-99.99,0.000000,,2013-07-18 07:22:00,
2013-07-18 01:32:00,59.0,58.0,30.32,East,82,31.0,35.0,94,-99.99,,,-99.99,0.000000,,2013-07-18 07:32:00,
2013-07-18 01:42:00,59.0,58.0,30.32,East,82,31.0,35.0,94,-99.99,,,-99.99,0.000000,,2013-07-18 07:42:00,
2013-07-18 01:52:00,59.0,58.0,30.32,East,82,31.0,35.0,94,-99.99,,,-99.99,0.000000,,2013-07-18 07:52:00,
2013-07-18 17:22:00,60.0,57.0,30.24,East,83,20.0,23.0,91,-99.99,,,-99.99,183.399994,,2013-07-18 23:22:00,
2013-07-18 17:32:00,60.0,57.0,30.24,East,83,20.0,23.0,91,-99.99,,,-99.99,183.399994,,2013-07-18 23:32:00,
2013-07-18 17:42:00,62.0,59.0,30.25,ENE,72,19.0,22.0,92,-99.99,,,-99.99,145.740005,,2013-07-18 23:42:00,
2013-07-18 17:52:00,63.0,61.0,30.25,ENE,67,19.0,26.0,92,-99.99,,,-99.99,194.559998,,2013-07-18 23:52:00,
2013-07-18 18:01:00,63.0,61.0,30.25,ENE,67,19.0,26.0,92,-99.99,,,-99.99,194.559998,,2013-07-19 00:01:00,
2013-07-18 18:11:00,64.0,61.0,30.24,ENE,78,23.0,28.0,90,-99.99,,,-99.99,111.570000,,2013-07-19 00:11:00,
2013-07-18 18:32:00,63.0,61.0,30.24,ENE,78,23.0,27.0,92,-99.99,,,-99.99,84.379997,,2013-07-19 00:32:00,
2013-07-18 18:43:00,64.0,61.0,30.23,ENE,76,28.0,32.0,91,-99.99,,,-99.99,77.400002,,2013-07-19 00:43:00,
2013-07-18 19:01:00,63.0,61.0,30.24,ENE,73,24.0,31.0,92,-99.99,,,-99.99,81.589996,,2013-07-19 01:01:00,
2013-07-18 19:11:00,62.0,61.0,30.24,ENE,65,22.0,28.0,95,-99.99,,,-99.99,74.610001,,2013-07-19 01:11:00,
2013-07-18 19:22:00,62.0,61.0,30.23,ENE,67,22.0,28.0,97,-99.99,,,-99.99,58.580002,,2013-07-19 01:22:00,
2013-07-18 19:32:00,62.0,61.0,30.23,ENE,67,22.0,28.0,97,-99.99,,,-99.99,58.580002,,2013-07-19 01:32:00,
2013-07-18 19:42:00,62.0,61.0,30.22,ENE,74,25.0,29.0,97,-99.99,,,-99.99,55.090000,,2013-07-19 01:42:00,
2013-07-18 20:01:00,62.0,61.0,30.22,ENE,77,24.0,28.0,97,-99.99,,,-99.99,39.750000,,2013-07-19 02:01:00,
2013-07-18 20:11:00,62.0,61.0,30.22,ENE,76,23.0,25.0,98,-99.99,,,-99.99,26.500000,,2013-07-19 02:11:00,
2013-07-18 20:22:00,61.0,61.0,30.22,ENE,76,21.0,24.0,98,-99.99,,,-99.99,12.550000,,2013-07-19 02:22:00,
2013-07-18 20:32:00,61.0,61.0,30.22,ENE,76,21.0,24.0,98,-99.99,,,-99.99,12.550000,,2013-07-19 02:32:00,
2013-07-18 20:42:00,61.0,61.0,30.21,ENE,74,23.0,27.0,98,-99.99,,,-99.99,3.490000,,2013-07-19 02:42:00,
2013-07-18 20:52:00,61.0,61.0,30.21,ENE,74,25.0,30.0,98,-99.99,,,-99.99,0.700000,,2013-07-19 02:52:00,
2013-07-18 21:01:00,61.0,61.0,30.21,ENE,74,25.0,30.0,98,-99.99,,,-99.99,0.700000,,2013-07-19 03:01:00,
2013-07-18 21:11:00,61.0,60.0,30.21,ENE,78,29.0,32.0,98,-99.99,,,-99.99,0.000000,,2013-07-19 03:11:00,
2013-07-18 21:22:00,61.0,60.0,30.22,East,82,27.0,31.0,96,-99.99,,,-99.99,0.000000,,2013-07-19 03:22:00,
2013-07-18 21:32:00,61.0,60.0,30.22,East,82,27.0,31.0,96,-99.99,,,-99.99,0.000000,,2013-07-19 03:32:00,
2013-07-18 21:42:00,61.0,60.0,30.22,East,83,28.0,31.0,96,-99.99,,,-99.99,0.000000,,2013-07-19 03:42:00,
2013-07-18 21:52:00,61.0,60.0,30.23,East,85,29.0,33.0,96,-99.99,,,-99.99,0.000000,,2013-07-19 03:52:00,
2013-07-18 22:02:00,61.0,60.0,30.23,East,85,29.0,33.0,96,-99.99,,,-99.99,0.000000,,2013-07-19 04:02:00,
2013-07-18 22:12:00,61.0,60.0,30.23,East,81,28.0,31.0,97,-99.99,,,-99.99,0.000000,,2013-07-19 04:12:00,
2013-07-18 22:22:00,61.0,60.0,30.24,ENE,73,27.0,31.0,98,-99.99,,,-99.99,0.000000,,2013-07-19 04:22:00,
2013-07-18 22:33:00,61.0,60.0,30.24,ENE,73,27.0,31.0,98,-99.99,,,-99.99,0.000000,,2013-07-19 04:33:00,
2013-07-18 22:43:00,60.0,60.0,30.25,ENE,62,24.0,29.0,98,-99.99,,,-99.99,0.000000,,2013-07-19 04:43:00,
2013-07-18 22:52:00,60.0,60.0,30.25,ENE,59,24.0,30.0,99,-99.99,,,-99.99,0.000000,,2013-07-19 04:52:00,
2013-07-18 23:02:00,60.0,60.0,30.25,ENE,59,24.0,30.0,99,-99.99,,,-99.99,0.000000,,2013-07-19 05:02:00,
2013-07-18 23:11:00,60.0,59.0,30.26,ENE,60,23.0,28.0,99,-99.99,,,-99.99,0.000000,,2013-07-19 05:11:00,
2013-07-18 23:22:00,59.0,59.0,30.27,ENE,61,20.0,25.0,99,-99.99,,,-99.99,0.000000,,2013-07-19 05:22:00,
2013-07-18 23:32:00,59.0,59.0,30.27,ENE,61,20.0,25.0,99,-99.99,,,-99.99,0.000000,,2013-07-19 05:32:00,
2013-07-18 23:43:00,59.0,59.0,30.28,ENE,57,19.0,22.0,99,-99.99,,,-99.99,0.000000,,2013-07-19 05:43:00,